createdAt,value
2017-02-15T00:00:47.056Z,1033.18
2017-02-15T00:01:56.112Z,1033.18
2017-02-15T00:03:05.137Z,1033.14
2017-02-15T00:04:14.158Z,1033.19
2017-02-15T00:05:23.210Z,1033.13
2017-02-15T00:06:32.246Z,1033.17
2017-02-15T00:07:41.280Z,1033.18
2017-02-15T00:08:50.746Z,1033.15
2017-02-15T00:09:59.783Z,1033.13
2017-02-15T00:11:09.251Z,1033.15
2017-02-15T00:12:18.280Z,1033.15
2017-02-15T00:13:27.318Z,1033.19
2017-02-15T00:14:36.360Z,1033.16
2017-02-15T00:15:45.379Z,1033.18
2017-02-15T00:16:54.402Z,1033.17
2017-02-15T00:18:03.418Z,1033.19
2017-02-15T00:19:12.464Z,1033.18
2017-02-15T00:20:21.495Z,1033.19
2017-02-15T00:21:30.529Z,1033.19
2017-02-15T00:22:40.014Z,1033.18
2017-02-15T00:23:49.456Z,1033.19
2017-02-15T00:24:58.468Z,1033.2
2017-02-15T00:26:07.493Z,1033.17
2017-02-15T00:27:16.516Z,1033.18
2017-02-15T00:28:25.560Z,1033.17
2017-02-15T00:29:34.999Z,1033.17
2017-02-15T00:30:44.461Z,1033.18
2017-02-15T00:31:53.503Z,1033.21
2017-02-15T00:33:02.520Z,1033.18
2017-02-15T00:34:11.553Z,1033.14
2017-02-15T00:35:20.580Z,1033.18
2017-02-15T00:36:29.623Z,1033.15
2017-02-15T00:37:38.647Z,1033.13
2017-02-15T00:38:47.681Z,1033.14
2017-02-15T00:39:56.732Z,1033.16
2017-02-15T00:41:05.750Z,1033.11
2017-02-15T00:42:14.761Z,1033.08
2017-02-15T00:43:23.790Z,1033.09
2017-02-15T00:44:32.813Z,1033.11
2017-02-15T00:45:41.844Z,1033.1
2017-02-15T00:46:50.882Z,1033.02
2017-02-15T00:47:59.924Z,1033.05
2017-02-15T00:49:08.949Z,1033.03
2017-02-15T00:50:17.975Z,1033.02
2017-02-15T00:51:26.990Z,1033.01
2017-02-15T00:52:36.443Z,1032.98
2017-02-15T00:53:45.465Z,1032.95
2017-02-15T00:54:54.487Z,1032.96
2017-02-15T00:56:03.523Z,1032.97
2017-02-15T00:57:12.548Z,1032.95
2017-02-15T00:58:21.573Z,1032.95
2017-02-15T00:59:30.586Z,1032.95
2017-02-15T01:00:39.609Z,1032.95
2017-02-15T01:01:48.628Z,1032.96
2017-02-15T01:02:57.639Z,1032.97
2017-02-15T01:04:07.100Z,1032.92
2017-02-15T01:05:16.527Z,1032.93
2017-02-15T01:06:25.547Z,1032.9
2017-02-15T01:07:34.566Z,1032.93
2017-02-15T01:08:43.602Z,1032.93
2017-02-15T01:09:52.629Z,1032.93
2017-02-15T01:11:01.638Z,1032.92
2017-02-15T01:12:10.661Z,1032.9
2017-02-15T01:13:19.691Z,1032.89
2017-02-15T01:14:28.741Z,1032.9
2017-02-15T01:15:37.783Z,1032.89
2017-02-15T01:16:46.818Z,1032.84
2017-02-15T01:17:55.843Z,1032.84
2017-02-15T01:19:04.877Z,1032.85
2017-02-15T01:20:14.122Z,1032.87
2017-02-15T01:21:23.237Z,1032.85
2017-02-15T01:22:32.263Z,1032.8
2017-02-15T01:23:41.312Z,1032.78
2017-02-15T01:24:50.343Z,1032.79
2017-02-15T01:25:59.371Z,1032.79
2017-02-15T01:27:08.391Z,1032.78
2017-02-15T01:28:17.420Z,1032.75
2017-02-15T01:29:26.437Z,1032.74
2017-02-15T01:30:35.896Z,1032.73
2017-02-15T01:31:44.939Z,1032.76
2017-02-15T01:32:53.957Z,1032.68
2017-02-15T01:34:02.978Z,1032.7
2017-02-15T01:35:11.996Z,1032.72
2017-02-15T01:36:21.030Z,1032.76
2017-02-15T01:37:30.061Z,1032.69
2017-02-15T01:38:39.088Z,1032.67
2017-02-15T01:39:48.104Z,1032.71
2017-02-15T01:40:57.134Z,1032.72
2017-02-15T01:42:06.146Z,1032.68
2017-02-15T01:43:15.167Z,1032.71
2017-02-15T01:44:24.185Z,1032.68
2017-02-15T01:45:33.624Z,1032.68
2017-02-15T01:46:42.643Z,1032.67
2017-02-15T01:47:51.670Z,1032.69
2017-02-15T01:49:00.688Z,1032.67
2017-02-15T01:50:09.710Z,1032.68
2017-02-15T01:51:18.775Z,1032.67
2017-02-15T01:52:27.797Z,1032.68
2017-02-15T01:53:36.817Z,1032.71
2017-02-15T01:54:45.830Z,1032.66
2017-02-15T01:55:54.859Z,1032.66
2017-02-15T01:57:03.924Z,1032.67
2017-02-15T01:58:12.942Z,1032.66
2017-02-15T01:59:21.967Z,1032.67
2017-02-15T02:00:30.976Z,1032.71
2017-02-15T02:01:39.990Z,1032.7
2017-02-15T02:02:49.006Z,1032.67
2017-02-15T02:03:58.018Z,1032.67
2017-02-15T02:05:07.039Z,1032.68
2017-02-15T02:06:16.054Z,1032.67
2017-02-15T02:07:25.084Z,1032.63
2017-02-15T02:08:34.112Z,1032.62
2017-02-15T02:09:43.143Z,1032.63
2017-02-15T02:10:52.166Z,1032.59
2017-02-15T02:12:01.616Z,1032.61
2017-02-15T02:13:10.648Z,1032.68
2017-02-15T02:14:19.692Z,1032.65
2017-02-15T02:15:28.702Z,1032.6
2017-02-15T02:16:37.721Z,1032.6
2017-02-15T02:17:46.757Z,1032.62
2017-02-15T02:18:55.774Z,1032.62
2017-02-15T02:20:04.789Z,1032.6
2017-02-15T02:21:13.820Z,1032.62
2017-02-15T02:22:22.830Z,1032.61
2017-02-15T02:23:31.841Z,1032.59
2017-02-15T02:24:40.856Z,1032.6
2017-02-15T02:25:49.897Z,1032.63
2017-02-15T02:26:59.807Z,1032.57
2017-02-15T02:28:08.829Z,1032.59
2017-02-15T02:29:17.854Z,1032.54
2017-02-15T02:30:26.879Z,1032.57
2017-02-15T02:31:35.917Z,1032.57
2017-02-15T02:32:44.928Z,1032.6
2017-02-15T02:33:53.959Z,1032.59
2017-02-15T02:35:02.997Z,1032.56
2017-02-15T02:36:12.410Z,1032.58
2017-02-15T02:37:21.457Z,1032.54
2017-02-15T02:38:30.494Z,1032.53
2017-02-15T02:39:39.505Z,1032.52
2017-02-15T02:40:48.948Z,1032.51
2017-02-15T02:41:57.967Z,1032.56
2017-02-15T02:43:07.402Z,1032.55
2017-02-15T02:44:16.430Z,1032.5
2017-02-15T02:45:25.465Z,1032.53
2017-02-15T02:46:34.467Z,1032.56
2017-02-15T02:47:43.487Z,1032.53
2017-02-15T02:48:52.507Z,1032.52
2017-02-15T02:50:01.563Z,1032.5
2017-02-15T02:51:10.596Z,1032.5
2017-02-15T02:52:19.605Z,1032.53
2017-02-15T02:53:28.609Z,1032.52
2017-02-15T02:54:37.642Z,1032.52
2017-02-15T02:55:46.657Z,1032.53
2017-02-15T02:56:55.670Z,1032.52
2017-02-15T02:58:04.710Z,1032.54
2017-02-15T02:59:13.734Z,1032.56
2017-02-15T03:00:22.738Z,1032.57
2017-02-15T03:01:32.184Z,1032.58
2017-02-15T03:02:41.200Z,1032.62
2017-02-15T03:03:50.210Z,1032.58
2017-02-15T03:04:59.250Z,1032.61
2017-02-15T03:06:08.273Z,1032.6
2017-02-15T03:07:17.288Z,1032.61
2017-02-15T03:08:26.322Z,1032.59
2017-02-15T03:09:35.360Z,1032.57
2017-02-15T03:10:44.402Z,1032.61
2017-02-15T03:11:53.415Z,1032.61
2017-02-15T03:13:02.419Z,1032.6
2017-02-15T03:14:11.439Z,1032.61
2017-02-15T03:15:20.476Z,1032.61
2017-02-15T03:16:29.937Z,1032.63
2017-02-15T03:17:38.994Z,1032.64
2017-02-15T03:18:48.013Z,1032.58
2017-02-15T03:19:57.026Z,1032.58
2017-02-15T03:21:06.072Z,1032.59
2017-02-15T03:22:15.090Z,1032.58
2017-02-15T03:23:24.538Z,1032.58
2017-02-15T03:24:33.556Z,1032.63
2017-02-15T03:25:43.008Z,1032.57
2017-02-15T03:26:52.852Z,1032.59
2017-02-15T03:28:01.882Z,1032.6
2017-02-15T03:29:10.930Z,1032.63
2017-02-15T03:30:19.953Z,1032.61
2017-02-15T03:31:29.092Z,1032.62
2017-02-15T03:32:38.525Z,1032.58
2017-02-15T03:33:47.549Z,1032.57
2017-02-15T03:34:56.584Z,1032.54
2017-02-15T03:36:05.602Z,1032.52
2017-02-15T03:37:14.633Z,1032.57
2017-02-15T03:38:23.679Z,1032.54
2017-02-15T03:39:32.711Z,1032.55
2017-02-15T03:40:41.740Z,1032.51
2017-02-15T03:41:50.768Z,1032.56
2017-02-15T03:42:59.781Z,1032.55
2017-02-15T03:44:09.649Z,1032.57
2017-02-15T03:45:18.673Z,1032.51
2017-02-15T03:46:27.699Z,1032.53
2017-02-15T03:47:36.729Z,1032.53
2017-02-15T03:48:45.761Z,1032.51
2017-02-15T03:49:54.798Z,1032.52
2017-02-15T03:51:04.238Z,1032.56
2017-02-15T03:52:13.288Z,1032.57
2017-02-15T03:53:22.304Z,1032.55
2017-02-15T03:54:31.329Z,1032.55
2017-02-15T03:55:40.379Z,1032.56
2017-02-15T03:56:49.422Z,1032.54
2017-02-15T03:57:58.434Z,1032.55
2017-02-15T03:59:07.856Z,1032.54
2017-02-15T04:00:16.888Z,1032.54
2017-02-15T04:01:25.893Z,1032.53
2017-02-15T04:02:34.916Z,1032.56
2017-02-15T04:03:43.922Z,1032.53
2017-02-15T04:04:52.932Z,1032.53
2017-02-15T04:06:01.954Z,1032.53
2017-02-15T04:07:10.973Z,1032.53
2017-02-15T04:08:20.447Z,1032.5
2017-02-15T04:09:29.871Z,1032.52
2017-02-15T04:10:38.906Z,1032.5
2017-02-15T04:11:47.942Z,1032.51
2017-02-15T04:12:56.973Z,1032.5
2017-02-15T04:14:05.985Z,1032.52
2017-02-15T04:15:15.022Z,1032.47
2017-02-15T04:16:24.037Z,1032.46
2017-02-15T04:17:33.056Z,1032.5
2017-02-15T04:18:42.069Z,1032.47
2017-02-15T04:19:51.094Z,1032.52
2017-02-15T04:21:00.121Z,1032.53
2017-02-15T04:22:09.148Z,1032.53
2017-02-15T04:23:18.167Z,1032.49
2017-02-15T04:24:27.191Z,1032.48
2017-02-15T04:25:36.216Z,1032.48
2017-02-15T04:26:45.219Z,1032.48
2017-02-15T04:27:54.252Z,1032.47
2017-02-15T04:29:03.285Z,1032.43
2017-02-15T04:30:12.313Z,1032.43
2017-02-15T04:31:21.331Z,1032.38
2017-02-15T04:32:30.350Z,1032.43
2017-02-15T04:33:39.364Z,1032.38
2017-02-15T04:34:48.398Z,1032.39
2017-02-15T04:35:57.416Z,1032.38
2017-02-15T04:37:06.438Z,1032.39
2017-02-15T04:38:15.465Z,1032.35
2017-02-15T04:39:24.483Z,1032.37
2017-02-15T04:40:33.506Z,1032.36
2017-02-15T04:41:42.541Z,1032.36
2017-02-15T04:42:51.590Z,1032.36
2017-02-15T04:44:00.650Z,1032.33
2017-02-15T04:45:10.109Z,1032.35
2017-02-15T04:46:19.134Z,1032.4
2017-02-15T04:47:28.158Z,1032.4
2017-02-15T04:48:37.178Z,1032.4
2017-02-15T04:49:46.621Z,1032.39
2017-02-15T04:50:55.696Z,1032.43
2017-02-15T04:52:04.734Z,1032.42
2017-02-15T04:53:13.747Z,1032.39
2017-02-15T04:54:22.782Z,1032.45
2017-02-15T04:55:32.223Z,1032.46
2017-02-15T04:56:41.254Z,1032.45
2017-02-15T04:57:50.280Z,1032.43
2017-02-15T04:58:59.710Z,1032.42
2017-02-15T05:00:08.751Z,1032.4
2017-02-15T05:01:17.768Z,1032.38
2017-02-15T05:02:26.801Z,1032.34
2017-02-15T05:03:36.254Z,1032.35
2017-02-15T05:04:45.294Z,1032.37
2017-02-15T05:05:54.327Z,1032.39
2017-02-15T05:07:03.354Z,1032.35
2017-02-15T05:08:12.391Z,1032.39
2017-02-15T05:09:21.408Z,1032.39
2017-02-15T05:10:30.426Z,1032.36
2017-02-15T05:11:39.463Z,1032.33
2017-02-15T05:12:48.481Z,1032.33
2017-02-15T05:13:57.490Z,1032.36
2017-02-15T05:15:06.524Z,1032.36
2017-02-15T05:16:15.546Z,1032.37
2017-02-15T05:17:24.569Z,1032.38
2017-02-15T05:18:33.596Z,1032.36
2017-02-15T05:19:42.648Z,1032.37
2017-02-15T05:20:51.670Z,1032.36
2017-02-15T05:22:00.702Z,1032.38
2017-02-15T05:23:10.140Z,1032.37
2017-02-15T05:24:19.151Z,1032.4
2017-02-15T05:25:28.173Z,1032.4
2017-02-15T05:26:37.198Z,1032.37
2017-02-15T05:27:46.228Z,1032.41
2017-02-15T05:28:55.242Z,1032.41
2017-02-15T05:30:04.256Z,1032.39
2017-02-15T05:31:13.705Z,1032.4
2017-02-15T05:32:22.737Z,1032.42
2017-02-15T05:33:31.742Z,1032.37
2017-02-15T05:34:40.774Z,1032.43
2017-02-15T05:35:49.805Z,1032.43
2017-02-15T05:36:58.810Z,1032.41
2017-02-15T05:38:08.241Z,1032.45
2017-02-15T05:39:17.291Z,1032.45
2017-02-15T05:40:26.307Z,1032.46
2017-02-15T05:41:35.318Z,1032.44
2017-02-15T05:42:44.338Z,1032.46
2017-02-15T05:43:53.379Z,1032.48
2017-02-15T05:45:02.385Z,1032.46
2017-02-15T05:46:11.411Z,1032.48
2017-02-15T05:47:20.427Z,1032.51
2017-02-15T05:48:29.459Z,1032.51
2017-02-15T05:49:38.490Z,1032.53
2017-02-15T05:50:47.933Z,1032.53
2017-02-15T05:51:56.964Z,1032.5
2017-02-15T05:53:05.998Z,1032.52
2017-02-15T05:54:15.008Z,1032.5
2017-02-15T05:55:24.024Z,1032.48
2017-02-15T05:56:33.030Z,1032.53
2017-02-15T05:57:42.059Z,1032.51
2017-02-15T05:58:51.081Z,1032.51
2017-02-15T06:00:00.112Z,1032.53
2017-02-15T06:01:09.204Z,1032.53
2017-02-15T06:02:18.236Z,1032.56
2017-02-15T06:03:27.266Z,1032.56
2017-02-15T06:04:36.293Z,1032.54
2017-02-15T06:05:45.316Z,1032.56
2017-02-15T06:06:54.746Z,1032.6
2017-02-15T06:08:04.192Z,1032.59
2017-02-15T06:09:13.211Z,1032.6
2017-02-15T06:10:22.639Z,1032.6
2017-02-15T06:11:31.681Z,1032.6
2017-02-15T06:12:40.764Z,1032.59
2017-02-15T06:13:49.791Z,1032.59
2017-02-15T06:14:59.009Z,1032.57
2017-02-15T06:16:08.446Z,1032.62
2017-02-15T06:17:17.463Z,1032.64
2017-02-15T06:18:26.479Z,1032.6
2017-02-15T06:19:35.498Z,1032.61
2017-02-15T06:20:44.540Z,1032.62
2017-02-15T06:21:53.551Z,1032.65
2017-02-15T06:23:02.586Z,1032.65
2017-02-15T06:24:11.596Z,1032.62
2017-02-15T06:25:20.629Z,1032.58
2017-02-15T06:26:29.645Z,1032.61
2017-02-15T06:27:38.663Z,1032.59
2017-02-15T06:28:48.110Z,1032.61
2017-02-15T06:29:57.136Z,1032.61
2017-02-15T06:31:06.163Z,1032.62
2017-02-15T06:32:15.219Z,1032.57
2017-02-15T06:33:24.229Z,1032.63
2017-02-15T06:34:33.255Z,1032.6
2017-02-15T06:35:42.297Z,1032.6
2017-02-15T06:36:51.317Z,1032.59
2017-02-15T06:38:00.338Z,1032.58
2017-02-15T06:39:09.354Z,1032.62
2017-02-15T06:40:18.379Z,1032.58
2017-02-15T06:41:27.396Z,1032.6
2017-02-15T06:42:36.414Z,1032.61
2017-02-15T06:43:45.441Z,1032.65
2017-02-15T06:44:54.455Z,1032.7
2017-02-15T06:46:03.500Z,1032.75
2017-02-15T06:47:12.539Z,1032.76
2017-02-15T06:48:21.577Z,1032.75
2017-02-15T06:49:30.605Z,1032.78
2017-02-15T06:50:39.647Z,1032.81
2017-02-15T06:51:48.645Z,1032.77
2017-02-15T06:52:57.681Z,1032.79
2017-02-15T06:54:06.724Z,1032.78
2017-02-15T06:55:15.748Z,1032.81
2017-02-15T06:56:24.767Z,1032.81
2017-02-15T06:57:34.225Z,1032.84
2017-02-15T06:58:43.232Z,1032.82
2017-02-15T06:59:52.265Z,1032.85
2017-02-15T07:01:01.311Z,1032.82
2017-02-15T07:02:10.339Z,1032.81
2017-02-15T07:03:19.368Z,1032.8
2017-02-15T07:04:28.439Z,1032.82
2017-02-15T07:05:37.462Z,1032.8
2017-02-15T07:06:46.501Z,1032.75
2017-02-15T07:07:55.508Z,1032.77
2017-02-15T07:09:04.558Z,1032.77
2017-02-15T07:10:14.000Z,1032.8
2017-02-15T07:11:23.026Z,1032.77
2017-02-15T07:12:32.057Z,1032.79
2017-02-15T07:13:41.083Z,1032.83
2017-02-15T07:14:50.106Z,1032.83
2017-02-15T07:15:59.149Z,1032.86
2017-02-15T07:17:08.593Z,1032.86
2017-02-15T07:18:17.605Z,1032.83
2017-02-15T07:19:26.634Z,1032.85
2017-02-15T07:20:35.665Z,1032.84
2017-02-15T07:21:44.670Z,1032.82
2017-02-15T07:22:54.122Z,1032.83
2017-02-15T07:24:03.153Z,1032.85
2017-02-15T07:25:12.174Z,1032.82
2017-02-15T07:26:21.212Z,1032.81
2017-02-15T07:27:30.250Z,1032.84
2017-02-15T07:28:39.271Z,1032.82
2017-02-15T07:29:48.308Z,1032.79
2017-02-15T07:30:57.344Z,1032.84
2017-02-15T07:32:06.355Z,1032.8
2017-02-15T07:33:15.412Z,1032.76
2017-02-15T07:34:24.439Z,1032.75
2017-02-15T07:35:33.464Z,1032.78
2017-02-15T07:36:42.908Z,1032.76
2017-02-15T07:37:51.929Z,1032.79
2017-02-15T07:39:00.978Z,1032.81
2017-02-15T07:40:09.995Z,1032.84
2017-02-15T07:41:19.875Z,1032.86
2017-02-15T07:42:28.912Z,1032.86
2017-02-15T07:43:37.940Z,1032.86
2017-02-15T07:44:47.371Z,1032.83
2017-02-15T07:45:56.398Z,1032.78
2017-02-15T07:47:05.471Z,1032.8
2017-02-15T07:48:14.489Z,1032.8
2017-02-15T07:49:23.505Z,1032.8
2017-02-15T07:50:32.532Z,1032.8
2017-02-15T07:51:41.592Z,1032.76
2017-02-15T07:52:50.609Z,1032.8
2017-02-15T07:53:59.646Z,1032.82
2017-02-15T07:55:08.683Z,1032.82
2017-02-15T07:56:17.713Z,1032.83
2017-02-15T07:57:26.736Z,1032.81
2017-02-15T07:58:35.774Z,1032.84
2017-02-15T07:59:45.213Z,1032.85
2017-02-15T08:00:54.646Z,1032.87
2017-02-15T08:02:04.083Z,1032.87
2017-02-15T08:03:13.109Z,1032.85
2017-02-15T08:04:22.120Z,1032.86
2017-02-15T08:05:31.174Z,1032.85
2017-02-15T08:06:40.198Z,1032.83
2017-02-15T08:07:49.222Z,1032.82
2017-02-15T08:08:58.275Z,1032.82
2017-02-15T08:10:07.707Z,1032.83
2017-02-15T08:11:16.729Z,1032.81
2017-02-15T08:12:25.753Z,1032.81
2017-02-15T08:13:34.772Z,1032.78
2017-02-15T08:14:44.230Z,1032.8
2017-02-15T08:15:53.254Z,1032.77
2017-02-15T08:17:02.299Z,1032.74
2017-02-15T08:18:11.318Z,1032.77
2017-02-15T08:19:20.376Z,1032.71
2017-02-15T08:20:29.416Z,1032.78
2017-02-15T08:21:38.437Z,1032.73
2017-02-15T08:22:47.468Z,1032.7
2017-02-15T08:23:56.505Z,1032.69
2017-02-15T08:25:05.512Z,1032.65
2017-02-15T08:26:14.560Z,1032.65
2017-02-15T08:27:23.565Z,1032.66
2017-02-15T08:28:33.008Z,1032.62
2017-02-15T08:29:42.025Z,1032.6
2017-02-15T08:30:51.074Z,1032.59
2017-02-15T08:32:00.089Z,1032.59
2017-02-15T08:33:09.128Z,1032.58
2017-02-15T08:34:18.154Z,1032.53
2017-02-15T08:35:27.189Z,1032.57
2017-02-15T08:36:36.229Z,1032.55
2017-02-15T08:37:45.269Z,1032.56
2017-02-15T08:38:54.313Z,1032.56
2017-02-15T08:40:03.342Z,1032.56
2017-02-15T08:41:12.392Z,1032.55
2017-02-15T08:42:21.399Z,1032.57
2017-02-15T08:43:30.429Z,1032.6
2017-02-15T08:44:39.873Z,1032.62
2017-02-15T08:45:48.886Z,1032.65
2017-02-15T08:46:57.903Z,1032.65
2017-02-15T08:48:06.941Z,1032.64
2017-02-15T08:49:15.970Z,1032.69
2017-02-15T08:50:25.013Z,1032.67
2017-02-15T08:51:34.457Z,1032.67
2017-02-15T08:52:43.477Z,1032.72
2017-02-15T08:53:52.486Z,1032.71
2017-02-15T08:55:01.506Z,1032.71
2017-02-15T08:56:10.538Z,1032.72
2017-02-15T08:57:19.566Z,1032.74
2017-02-15T08:58:29.005Z,1032.73
2017-02-15T08:59:38.033Z,1032.77
2017-02-15T09:00:47.072Z,1032.77
2017-02-15T09:01:56.507Z,1032.8
2017-02-15T09:03:05.559Z,1032.79
2017-02-15T09:04:14.580Z,1032.79
2017-02-15T09:05:23.601Z,1032.78
2017-02-15T09:06:32.615Z,1032.79
2017-02-15T09:07:41.653Z,1032.8
2017-02-15T09:08:50.669Z,1032.76
2017-02-15T09:09:59.705Z,1032.82
2017-02-15T09:11:09.150Z,1032.82
2017-02-15T09:12:18.175Z,1032.8
2017-02-15T09:13:27.201Z,1032.8
2017-02-15T09:14:36.222Z,1032.83
2017-02-15T09:15:45.238Z,1032.83
2017-02-15T09:16:54.267Z,1032.82
2017-02-15T09:18:03.295Z,1032.8
2017-02-15T09:19:12.321Z,1032.79
2017-02-15T09:20:21.355Z,1032.8
2017-02-15T09:21:30.388Z,1032.81
2017-02-15T09:22:39.403Z,1032.79
2017-02-15T09:23:48.431Z,1032.8
2017-02-15T09:24:57.459Z,1032.79
2017-02-15T09:26:06.481Z,1032.82
2017-02-15T09:27:15.522Z,1032.83
2017-02-15T09:28:24.968Z,1032.85
2017-02-15T09:29:33.985Z,1032.79
2017-02-15T09:30:43.081Z,1032.77
2017-02-15T09:31:52.217Z,1032.81
2017-02-15T09:33:01.256Z,1032.77
2017-02-15T09:34:10.289Z,1032.8
2017-02-15T09:35:19.305Z,1032.78
2017-02-15T09:36:28.358Z,1032.78
2017-02-15T09:37:37.403Z,1032.8
2017-02-15T09:38:46.447Z,1032.78
2017-02-15T09:39:55.469Z,1032.82
2017-02-15T09:41:04.498Z,1032.78
2017-02-15T09:42:13.545Z,1032.82
2017-02-15T09:43:22.579Z,1032.79
2017-02-15T09:44:32.016Z,1032.76
2017-02-15T09:45:41.052Z,1032.77
2017-02-15T09:46:50.078Z,1032.76
2017-02-15T09:47:59.099Z,1032.81
2017-02-15T09:49:08.553Z,1032.79
2017-02-15T09:50:17.571Z,1032.78
2017-02-15T09:51:26.587Z,1032.78
2017-02-15T09:52:35.625Z,1032.78
2017-02-15T09:53:44.650Z,1032.79
2017-02-15T09:54:53.664Z,1032.78
2017-02-15T09:56:02.726Z,1032.79
2017-02-15T09:57:11.758Z,1032.76
2017-02-15T09:58:20.790Z,1032.75
2017-02-15T09:59:29.819Z,1032.72
2017-02-15T10:00:38.844Z,1032.71
2017-02-15T10:01:47.864Z,1032.76
2017-02-15T10:02:56.899Z,1032.75
2017-02-15T10:04:05.934Z,1032.76
2017-02-15T10:05:14.952Z,1032.81
2017-02-15T10:06:24.000Z,1032.79
2017-02-15T10:07:33.425Z,1032.83
2017-02-15T10:08:42.849Z,1032.81
2017-02-15T10:09:51.875Z,1032.79
2017-02-15T10:11:00.935Z,1032.78
2017-02-15T10:12:09.979Z,1032.8
2017-02-15T10:13:19.006Z,1032.84
2017-02-15T10:14:28.043Z,1032.83
2017-02-15T10:15:37.070Z,1032.81
2017-02-15T10:16:46.519Z,1032.81
2017-02-15T10:17:55.542Z,1032.83
2017-02-15T10:19:04.605Z,1032.83
2017-02-15T10:20:14.875Z,1032.85
2017-02-15T10:21:23.901Z,1032.79
2017-02-15T10:22:32.917Z,1032.83
2017-02-15T10:23:41.974Z,1032.83
2017-02-15T10:24:51.415Z,1032.77
2017-02-15T10:26:00.867Z,1032.76
2017-02-15T10:27:09.905Z,1032.74
2017-02-15T10:28:18.946Z,1032.77
2017-02-15T10:29:27.971Z,1032.74
2017-02-15T10:30:36.995Z,1032.71
2017-02-15T10:31:46.056Z,1032.64
2017-02-15T10:32:55.065Z,1032.67
2017-02-15T10:34:04.076Z,1032.64
2017-02-15T10:35:13.160Z,1032.62
2017-02-15T10:36:22.179Z,1032.65
2017-02-15T10:37:31.222Z,1032.64
2017-02-15T10:38:40.255Z,1032.62
2017-02-15T10:39:49.276Z,1032.61
2017-02-15T10:40:58.310Z,1032.59
2017-02-15T10:42:07.338Z,1032.58
2017-02-15T10:43:16.378Z,1032.57
2017-02-15T10:44:25.425Z,1032.58
2017-02-15T10:45:34.532Z,1032.58
2017-02-15T10:46:43.591Z,1032.56
2017-02-15T10:47:53.060Z,1032.56
2017-02-15T10:49:02.108Z,1032.49
2017-02-15T10:50:11.163Z,1032.49
2017-02-15T10:51:20.242Z,1032.49
2017-02-15T10:52:29.739Z,1032.48
2017-02-15T10:53:38.806Z,1032.47
2017-02-15T10:54:48.288Z,1032.47
2017-02-15T10:55:57.366Z,1032.44
2017-02-15T10:57:06.434Z,1032.44
2017-02-15T10:58:15.496Z,1032.46
2017-02-15T10:59:24.569Z,1032.43
2017-02-15T11:00:34.045Z,1032.41
2017-02-15T11:01:43.106Z,1032.42
2017-02-15T11:02:52.157Z,1032.41
2017-02-15T11:04:01.217Z,1032.37
2017-02-15T11:05:11.166Z,1032.38
2017-02-15T11:06:20.239Z,1032.36
2017-02-15T11:07:29.294Z,1032.31
2017-02-15T11:08:38.365Z,1032.32
2017-02-15T11:09:47.418Z,1032.33
2017-02-15T11:10:56.473Z,1032.32
2017-02-15T11:12:05.534Z,1032.35
2017-02-15T11:13:14.602Z,1032.32
2017-02-15T11:14:24.078Z,1032.34
2017-02-15T11:15:33.129Z,1032.31
2017-02-15T11:16:42.184Z,1032.33
2017-02-15T11:17:51.235Z,1032.31
2017-02-15T11:19:00.296Z,1032.3
2017-02-15T11:20:09.362Z,1032.29
2017-02-15T11:21:18.441Z,1032.27
2017-02-15T11:22:27.522Z,1032.24
2017-02-15T11:23:36.584Z,1032.17
2017-02-15T11:24:45.663Z,1032.17
2017-02-15T11:25:54.729Z,1032.19
2017-02-15T11:27:03.775Z,1032.18
2017-02-15T11:28:12.824Z,1032.17
2017-02-15T11:29:22.323Z,1032.2
2017-02-15T11:30:31.391Z,1032.17
2017-02-15T11:31:40.463Z,1032.19
2017-02-15T11:32:49.515Z,1032.15
2017-02-15T11:33:58.569Z,1032.14
2017-02-15T11:35:07.625Z,1032.11
2017-02-15T11:36:16.696Z,1032.12
2017-02-15T11:37:25.751Z,1032.09
2017-02-15T11:38:34.793Z,1032.12
2017-02-15T11:39:43.850Z,1032.12
2017-02-15T11:40:52.902Z,1032.13
2017-02-15T11:42:02.382Z,1032.14
2017-02-15T11:43:11.862Z,1032.09
2017-02-15T11:44:20.907Z,1032.13
2017-02-15T11:45:29.958Z,1032.1
2017-02-15T11:46:39.020Z,1032.08
2017-02-15T11:47:48.101Z,1032.08
2017-02-15T11:48:57.572Z,1032.05
2017-02-15T11:50:06.620Z,1032.02
2017-02-15T11:51:15.672Z,1032
2017-02-15T11:52:25.153Z,1032
2017-02-15T11:53:34.287Z,1031.97
2017-02-15T11:54:43.339Z,1031.94
2017-02-15T11:55:52.399Z,1031.92
2017-02-15T11:57:01.461Z,1031.92
2017-02-15T11:58:10.517Z,1031.93
2017-02-15T11:59:19.576Z,1031.89
2017-02-15T12:00:28.646Z,1031.89
2017-02-15T12:01:37.709Z,1031.88
2017-02-15T12:02:46.774Z,1031.85
2017-02-15T12:03:55.825Z,1031.81
2017-02-15T12:05:04.891Z,1031.82
2017-02-15T12:06:13.979Z,1031.81
2017-02-15T12:07:23.034Z,1031.79
2017-02-15T12:08:32.105Z,1031.76
2017-02-15T12:09:41.170Z,1031.73
2017-02-15T12:10:50.237Z,1031.7
2017-02-15T12:11:59.304Z,1031.69
2017-02-15T12:13:08.361Z,1031.69
2017-02-15T12:14:17.429Z,1031.68
2017-02-15T12:15:26.521Z,1031.65
2017-02-15T12:16:35.586Z,1031.64
2017-02-15T12:17:44.661Z,1031.64
2017-02-15T12:18:53.729Z,1031.64
2017-02-15T12:20:02.799Z,1031.64
2017-02-15T12:21:11.860Z,1031.6
2017-02-15T12:22:20.914Z,1031.59
2017-02-15T12:23:29.964Z,1031.62
2017-02-15T12:24:39.031Z,1031.56
2017-02-15T12:25:48.108Z,1031.56
2017-02-15T12:26:57.600Z,1031.55
2017-02-15T12:28:06.652Z,1031.54
2017-02-15T12:29:15.750Z,1031.54
2017-02-15T12:30:24.807Z,1031.49
2017-02-15T12:31:34.278Z,1031.5
2017-02-15T12:32:43.333Z,1031.48
2017-02-15T12:33:52.405Z,1031.46
2017-02-15T12:35:01.450Z,1031.46
2017-02-15T12:36:10.513Z,1031.45
2017-02-15T12:37:19.572Z,1031.41
2017-02-15T12:38:28.643Z,1031.39
2017-02-15T12:39:37.707Z,1031.38
2017-02-15T12:40:46.782Z,1031.37
2017-02-15T12:41:55.847Z,1031.36
2017-02-15T12:43:05.317Z,1031.32
2017-02-15T12:44:14.383Z,1031.35
2017-02-15T12:45:23.443Z,1031.26
2017-02-15T12:46:32.522Z,1031.31
2017-02-15T12:47:41.587Z,1031.31
2017-02-15T12:48:50.644Z,1031.26
2017-02-15T12:49:59.726Z,1031.2
2017-02-15T12:51:08.823Z,1031.22
2017-02-15T12:52:18.320Z,1031.19
2017-02-15T12:53:27.394Z,1031.2
2017-02-15T12:54:36.472Z,1031.16
2017-02-15T12:55:45.542Z,1031.19
2017-02-15T12:56:54.601Z,1031.17
2017-02-15T12:58:03.662Z,1031.14
2017-02-15T12:59:12.723Z,1031.15
2017-02-15T13:00:21.783Z,1031.12
2017-02-15T13:01:31.286Z,1031.1
2017-02-15T13:02:40.355Z,1031.12
2017-02-15T13:03:49.837Z,1031.12
2017-02-15T13:04:58.905Z,1031.13
2017-02-15T13:06:08.395Z,1031.09
2017-02-15T13:07:17.454Z,1031.11
2017-02-15T13:08:26.509Z,1031.12
2017-02-15T13:09:35.556Z,1031.12
2017-02-15T13:10:44.636Z,1031.08
2017-02-15T13:11:53.724Z,1031.03
2017-02-15T13:13:02.793Z,1031.08
2017-02-15T13:14:11.850Z,1031.03
2017-02-15T13:15:21.325Z,1031.03
2017-02-15T13:16:30.414Z,1031
2017-02-15T13:17:39.475Z,1030.96
2017-02-15T13:18:48.946Z,1030.96
2017-02-15T13:19:58.019Z,1030.93
2017-02-15T13:21:07.085Z,1030.91
2017-02-15T13:22:16.147Z,1030.91
2017-02-15T13:23:25.226Z,1030.91
2017-02-15T13:24:34.318Z,1030.91
2017-02-15T13:25:43.389Z,1030.92
2017-02-15T13:26:52.452Z,1030.93
2017-02-15T13:28:01.931Z,1030.93
2017-02-15T13:29:10.985Z,1030.91
2017-02-15T13:30:20.061Z,1030.89
2017-02-15T13:31:29.542Z,1030.93
2017-02-15T13:32:38.607Z,1030.91
2017-02-15T13:33:47.683Z,1030.9
2017-02-15T13:34:56.757Z,1030.92
2017-02-15T13:36:05.817Z,1030.92
2017-02-15T13:37:14.885Z,1030.93
2017-02-15T13:38:23.936Z,1030.96
2017-02-15T13:39:33.005Z,1030.95
2017-02-15T13:40:42.054Z,1030.99
2017-02-15T13:41:51.117Z,1030.99
2017-02-15T13:43:00.178Z,1031.01
2017-02-15T13:44:09.253Z,1030.99
2017-02-15T13:45:18.320Z,1031
2017-02-15T13:46:27.797Z,1030.98
2017-02-15T13:47:36.853Z,1030.94
2017-02-15T13:48:45.927Z,1030.96
2017-02-15T13:49:55.000Z,1030.95
2017-02-15T13:51:04.062Z,1030.9
2017-02-15T13:52:13.132Z,1030.96
2017-02-15T13:53:23.028Z,1030.89
2017-02-15T13:54:32.092Z,1030.89
2017-02-15T13:55:41.185Z,1030.85
2017-02-15T13:56:50.246Z,1030.89
2017-02-15T13:57:59.320Z,1030.85
2017-02-15T13:59:08.388Z,1030.85